Time;durP1;ratioP1;P1;durP2;ratioP2;P2;SDS_P1;SDS_P2;PMS_P1;PMS_P2;Temp;Humidity;BMP_temperature;BMP_pressure;BME280_temperature;BME280_humidity;BME280_pressure;Samples;Min_cycle;Max_cycle;Signal;HPM_P1;HPM_P2
2021/03/08 00:00:32;;;;;;;131.40;55.05;;;39.30;2201.60;;;;;;5010834;28;20029;-72
2021/03/08 00:02:59;;;;;;;127.60;52.63;;;39.30;2201.60;;;;;;5010649;28;20026;-66
2021/03/08 00:05:25;;;;;;;126.30;51.08;;;39.30;2201.60;;;;;;5002338;28;20026;-71
2021/03/08 00:07:51;;;;;;;131.48;52.15;;;39.30;2201.60;;;;;;4995896;28;20502;-66
2021/03/08 00:10:19;;;;;;;128.25;53.45;;;39.30;2201.60;;;;;;5004391;28;20023;-66
2021/03/08 00:12:46;;;;;;;120.25;53.88;;;39.30;2201.60;;;;;;4997274;28;20033;-66
2021/03/08 00:15:12;;;;;;;139.80;61.30;;;39.30;2201.60;;;;;;4994047;28;20027;-66
2021/03/08 00:17:38;;;;;;;126.53;56.70;;;64.00;2201.60;;;;;;5003335;28;20053;-66
2021/03/08 00:20:07;;;;;;;124.95;53.22;;;64.00;2201.60;;;;;;4998914;28;20057;-66
2021/03/08 00:22:33;;;;;;;123.40;55.75;;;64.00;2201.60;;;;;;5003056;28;20052;-65
2021/03/08 00:24:58;;;;;;;120.35;53.65;;;64.10;2201.60;;;;;;4999125;28;20495;-69
2021/03/08 00:27:24;;;;;;;118.72;50.05;;;64.10;2201.60;;;;;;4995868;28;20030;-66
2021/03/08 00:29:50;;;;;;;106.18;46.85;;;64.20;2201.60;;;;;;4997954;28;20219;-66
2021/03/08 00:32:16;;;;;;;101.85;45.20;;;64.30;2201.60;;;;;;5001949;28;20427;-67
2021/03/08 00:34:41;;;;;;;103.95;44.85;;;64.30;2201.60;;;;;;4995373;28;20509;-66
2021/03/08 00:37:07;;;;;;;111.72;47.22;;;64.40;2201.60;;;;;;4994967;28;20105;-68
2021/03/08 00:39:33;;;;;;;106.85;47.72;;;64.40;2201.60;;;;;;4996043;28;20018;-67
2021/03/08 00:41:59;;;;;;;106.22;45.45;;;64.40;2201.60;;;;;;4998600;28;20026;-66
2021/03/08 00:44:25;;;;;;;107.80;45.88;;;64.40;2201.60;;;;;;4996740;28;20057;-65
2021/03/08 00:46:51;;;;;;;114.43;46.83;;;64.40;2201.60;;;;;;4998154;28;20026;-69
2021/03/08 00:49:16;;;;;;;110.68;47.28;;;64.40;2201.60;;;;;;5003552;28;20238;-65
2021/03/08 00:51:42;;;;;;;116.88;47.72;;;64.40;2201.60;;;;;;5007107;28;20029;-71
2021/03/08 00:54:08;;;;;;;102.80;39.90;;;64.40;2201.60;;;;;;5012910;28;20368;-71
2021/03/08 00:56:33;;;;;;;110.10;41.95;;;64.50;2201.60;;;;;;5012613;28;20037;-67
2021/03/08 00:58:59;;;;;;;106.15;42.85;;;64.40;2201.60;;;;;;5011301;28;20361;-68
2021/03/08 01:01:25;;;;;;;92.00;37.63;;;64.40;2201.60;;;;;;5013710;28;20052;-66
2021/03/08 01:03:51;;;;;;;74.97;34.03;;;64.40;2201.60;;;;;;5012957;28;20033;-66
2021/03/08 01:06:16;;;;;;;71.68;32.63;;;64.40;2201.60;;;;;;5013096;28;20025;-66
2021/03/08 01:08:42;;;;;;;85.07;36.28;;;64.40;2201.60;;;;;;5012769;28;20041;-66
2021/03/08 01:11:08;;;;;;;105.78;42.72;;;64.50;2201.60;;;;;;5012300;28;20434;-66
2021/03/08 01:13:34;;;;;;;78.43;33.72;;;64.40;2201.60;;;;;;5013046;28;20018;-66
2021/03/08 01:16:00;;;;;;;88.30;36.72;;;64.40;2201.60;;;;;;5011059;28;20372;-66
2021/03/08 01:18:25;;;;;;;102.22;41.67;;;64.30;2201.60;;;;;;5010068;28;20578;-66
2021/03/08 01:20:51;;;;;;;86.88;38.42;;;64.30;2201.60;;;;;;5012372;28;20030;-66
2021/03/08 01:23:17;;;;;;;104.85;43.03;;;64.30;2201.60;;;;;;5011540;28;20041;-66
2021/03/08 01:25:43;;;;;;;106.80;43.30;;;64.30;2201.60;;;;;;5012706;28;20026;-66
2021/03/08 01:28:09;;;;;;;96.93;41.40;;;64.30;2201.60;;;;;;5011642;28;20029;-66
2021/03/08 01:30:38;;;;;;;105.15;45.00;;;64.40;2201.60;;;;;;5011858;28;20073;-66
2021/03/08 01:33:05;;;;;;;100.25;41.42;;;64.40;2201.60;;;;;;5011185;28;20137;-66
2021/03/08 01:35:31;;;;;;;85.68;37.95;;;64.40;2201.60;;;;;;5000922;28;20079;-66
2021/03/08 01:37:57;;;;;;;102.28;41.35;;;64.50;2201.60;;;;;;5012690;28;20030;-67
2021/03/08 01:40:25;;;;;;;81.10;35.65;;;64.60;2201.60;;;;;;5009899;28;20079;-66
2021/03/08 01:42:52;;;;;;;76.88;42.17;;;64.60;2201.60;;;;;;5011917;28;20038;-67
2021/03/08 01:45:19;;;;;;;68.88;38.08;;;64.60;2201.60;;;;;;5012225;28;20054;-66
2021/03/08 01:47:46;;;;;;;55.65;28.15;;;64.70;2201.60;;;;;;5012327;28;20040;-66
2021/03/08 01:50:40;;;;;;;55.15;25.75;;;64.80;2201.60;;;;;;5012015;28;20026;-66
2021/03/08 01:53:09;;;;;;;49.40;24.90;;;64.90;2201.60;;;;;;5012347;28;20101;-67
2021/03/08 01:55:35;;;;;;;45.72;22.13;;;89.60;2201.60;;;;;;5012173;28;20416;-67
2021/03/08 01:58:01;;;;;;;49.40;23.58;;;89.60;2201.60;;;;;;5012411;28;20057;-67
2021/03/08 02:00:28;;;;;;;42.30;20.85;;;89.70;2176.00;;;;;;5008187;28;20065;-66
2021/03/08 02:02:55;;;;;;;40.45;21.23;;;89.70;2176.00;;;;;;4993009;28;20024;-66
2021/03/08 02:05:28;;;;;;;46.65;20.95;;;89.70;2176.00;;;;;;4992228;28;20031;-66
2021/03/08 02:07:54;;;;;;;46.83;21.25;;;89.70;2176.00;;;;;;4994507;28;20053;-66
2021/03/08 02:10:21;;;;;;;48.00;21.70;;;89.80;2176.00;;;;;;4993900;28;20391;-66
2021/03/08 02:12:46;;;;;;;49.10;22.50;;;89.80;2176.00;;;;;;4999873;28;20521;-71
2021/03/08 02:15:42;;;;;;;46.42;21.13;;;89.90;2176.00;;;;;;5011852;28;20029;-76
2021/03/08 02:18:18;;;;;;;49.85;22.70;;;89.90;2176.00;;;;;;5011642;28;20032;-68
2021/03/08 02:20:47;;;;;;;54.00;23.25;;;90.00;2176.00;;;;;;5011337;28;20390;-66
2021/03/08 02:23:37;;;;;;;51.55;23.35;;;90.00;2176.00;;;;;;5011457;28;20080;-70
2021/03/08 02:26:14;;;;;;;55.80;24.67;;;90.00;2176.00;;;;;;5011837;28;20109;-65
2021/03/08 02:29:06;;;;;;;50.97;22.67;;;90.00;2176.00;;;;;;5011386;28;20026;-66
2021/03/08 02:31:32;;;;;;;57.42;24.63;;;90.10;2176.00;;;;;;5011415;28;20030;-67
2021/03/08 02:34:11;;;;;;;49.25;23.15;;;90.10;2176.00;;;;;;5011593;28;20010;-66
2021/03/08 02:36:43;;;;;;;50.40;22.83;;;90.10;2176.00;;;;;;5011576;28;20536;-66
2021/03/08 02:39:18;;;;;;;48.55;22.35;;;90.00;2176.00;;;;;;5011233;28;20029;-70
2021/03/08 02:41:47;;;;;;;48.25;22.50;;;90.00;2176.00;;;;;;5012420;28;20060;-66
2021/03/08 02:44:15;;;;;;;52.60;24.05;;;90.00;2176.00;;;;;;5010973;28;20418;-66
2021/03/08 02:46:44;;;;;;;58.40;24.83;;;90.00;2176.00;;;;;;5011424;28;20033;-67
2021/03/08 02:49:15;;;;;;;54.30;23.58;;;90.00;2176.00;;;;;;5011038;28;20509;-67
2021/03/08 02:51:52;;;;;;;77.20;28.40;;;90.00;2176.00;;;;;;5011451;28;20030;-66
2021/03/08 02:54:20;;;;;;;92.22;32.40;;;90.00;2176.00;;;;;;5011126;28;20034;-65
2021/03/08 02:56:48;;;;;;;70.32;28.00;;;90.00;2176.00;;;;;;5011466;28;20030;-65
2021/03/08 02:59:16;;;;;;;51.60;21.00;;;89.90;2176.00;;;;;;5010713;28;20026;-67
2021/03/08 03:01:43;;;;;;;36.28;18.20;;;89.90;2176.00;;;;;;5011421;28;20079;-66
2021/03/08 03:04:11;;;;;;;38.88;18.33;;;89.80;2176.00;;;;;;5011509;28;20033;-66
2021/03/08 03:06:39;;;;;;;41.53;19.17;;;89.80;2176.00;;;;;;5011369;28;20399;-66
2021/03/08 03:09:12;;;;;;;44.50;19.67;;;89.70;2176.00;;;;;;5010708;28;20026;-66
2021/03/08 03:11:45;;;;;;;37.20;18.38;;;89.70;2176.00;;;;;;5010933;28;20037;-70
2021/03/08 03:14:12;;;;;;;35.05;17.08;;;89.70;2176.00;;;;;;5011198;28;20072;-67
2021/03/08 03:16:43;;;;;;;37.65;17.45;;;89.70;2176.00;;;;;;5011660;28;20052;-66
2021/03/08 03:19:10;;;;;;;25.77;13.82;;;89.80;2176.00;;;;;;5010869;28;20037;-66
2021/03/08 03:21:37;;;;;;;33.60;14.35;;;89.70;2176.00;;;;;;5011150;28;20029;-66
2021/03/08 03:24:07;;;;;;;26.55;13.35;;;89.70;2176.00;;;;;;5011558;28;20473;-65
2021/03/08 03:26:33;;;;;;;27.02;14.25;;;89.60;2201.60;;;;;;5010970;28;20022;-66
2021/03/08 03:29:01;;;;;;;32.15;14.27;;;64.90;2201.60;;;;;;5010711;28;20061;-66
2021/03/08 03:31:28;;;;;;;28.15;14.55;;;64.90;2201.60;;;;;;5010851;28;20029;-67
2021/03/08 03:33:55;;;;;;;26.00;13.70;;;64.90;2201.60;;;;;;5014188;28;20088;-66
2021/03/08 03:36:22;;;;;;;33.97;16.65;;;64.90;2201.60;;;;;;5014928;28;20434;-67
2021/03/08 03:38:51;;;;;;;33.22;18.42;;;64.90;2201.60;;;;;;5014646;28;20026;-66
2021/03/08 03:41:16;;;;;;;34.00;17.52;;;64.90;2201.60;;;;;;5014124;28;20026;-66
2021/03/08 03:43:42;;;;;;;37.05;17.95;;;64.80;2201.60;;;;;;5014868;28;20033;-66
2021/03/08 03:46:08;;;;;;;37.25;18.88;;;64.80;2201.60;;;;;;5014822;28;20372;-66
2021/03/08 03:48:33;;;;;;;40.15;18.98;;;64.80;2201.60;;;;;;5014375;28;20100;-69
2021/03/08 03:51:00;;;;;;;36.95;19.55;;;64.80;2201.60;;;;;;5014563;28;20037;-66
2021/03/08 03:53:26;;;;;;;40.97;21.50;;;64.80;2201.60;;;;;;5014522;28;20566;-66
2021/03/08 03:55:53;;;;;;;43.03;21.50;;;64.80;2201.60;;;;;;5014561;28;20064;-66
2021/03/08 03:58:24;;;;;;;47.05;22.88;;;64.80;2201.60;;;;;;5014861;28;20026;-66
2021/03/08 04:00:57;;;;;;;49.63;22.85;;;64.80;2201.60;;;;;;5014333;28;20026;-67
2021/03/08 04:04:08;;;;;;;40.35;20.42;;;64.80;2201.60;;;;;;5014461;28;20030;-66
2021/03/08 04:06:40;;;;;;;36.90;18.95;;;64.80;2201.60;;;;;;5013549;28;20034;-66
2021/03/08 04:09:08;;;;;;;41.42;21.05;;;64.70;2201.60;;;;;;5013959;28;20056;-66
2021/03/08 04:11:38;;;;;;;41.72;21.65;;;64.80;2201.60;;;;;;5014217;28;20038;-66
2021/03/08 04:14:05;;;;;;;49.00;24.00;;;64.80;2201.60;;;;;;5014257;28;20407;-66
2021/03/08 04:16:33;;;;;;;46.67;23.10;;;64.80;2201.60;;;;;;5014402;28;20372;-66
2021/03/08 04:19:01;;;;;;;42.03;22.45;;;64.80;2201.60;;;;;;5013760;28;20030;-68
2021/03/08 04:21:27;;;;;;;31.08;16.20;;;64.90;2201.60;;;;;;5014074;28;20030;-70
2021/03/08 04:23:55;;;;;;;29.52;15.80;;;64.90;2201.60;;;;;;5014201;28;20022;-66
2021/03/08 04:26:22;;;;;;;31.77;15.50;;;89.60;2201.60;;;;;;5004884;28;20112;-70
2021/03/08 04:28:50;;;;;;;39.30;19.50;;;89.60;2201.60;;;;;;5013959;28;20057;-66
2021/03/08 04:31:17;;;;;;;37.50;18.90;;;89.70;2176.00;;;;;;5013834;28;20030;-66
2021/03/08 04:33:44;;;;;;;43.00;19.55;;;89.70;2176.00;;;;;;5013842;28;20022;-66
2021/03/08 04:36:11;;;;;;;36.65;17.10;;;89.70;2176.00;;;;;;5013511;28;20079;-66
2021/03/08 04:38:39;;;;;;;36.33;17.73;;;89.80;2176.00;;;;;;5013334;28;20021;-66
2021/03/08 04:41:04;;;;;;;36.47;18.95;;;89.80;2176.00;;;;;;5013917;28;20494;-67
2021/03/08 04:43:31;;;;;;;43.72;22.45;;;89.80;2176.00;;;;;;5013507;28;20113;-66
2021/03/08 04:45:57;;;;;;;56.42;24.02;;;89.70;2176.00;;;;;;5012863;28;20082;-67
2021/03/08 04:48:25;;;;;;;48.97;23.05;;;89.70;2176.00;;;;;;5013619;28;20034;-66
2021/03/08 04:50:52;;;;;;;43.45;22.40;;;89.70;2176.00;;;;;;5013303;28;20040;-70
2021/03/08 04:53:19;;;;;;;45.67;22.98;;;89.70;2176.00;;;;;;5013792;28;20080;-70
2021/03/08 04:55:47;;;;;;;58.90;25.50;;;89.60;2201.60;;;;;;5013358;28;20050;-71
2021/03/08 04:58:13;;;;;;;31.83;16.35;;;89.70;2176.00;;;;;;5013149;28;20030;-68
2021/03/08 05:00:38;;;;;;;29.33;15.10;;;89.70;2176.00;;;;;;5013122;28;20049;-68
2021/03/08 05:03:05;;;;;;;26.20;13.73;;;89.80;2176.00;;;;;;5013397;28;20038;-68
2021/03/08 05:05:32;;;;;;;25.45;12.93;;;89.90;2176.00;;;;;;5013781;28;20022;-66
2021/03/08 05:08:10;;;;;;;28.48;13.63;;;89.90;2176.00;;;;;;5012642;28;20133;-66
2021/03/08 05:10:38;;;;;;;24.40;12.85;;;89.90;2176.00;;;;;;5012645;28;20021;-69
2021/03/08 05:13:07;;;;;;;27.60;14.10;;;90.00;2176.00;;;;;;5013204;28;20026;-66
2021/03/08 05:15:34;;;;;;;30.23;13.20;;;90.10;2176.00;;;;;;5013185;28;20029;-66
2021/03/08 05:18:01;;;;;;;26.70;13.63;;;90.10;2176.00;;;;;;5012674;28;20068;-66
2021/03/08 05:20:28;;;;;;;22.75;12.63;;;90.10;2176.00;;;;;;5012900;28;20034;-66
2021/03/08 05:22:55;;;;;;;48.17;21.90;;;90.00;2176.00;;;;;;5012634;28;20021;-67
2021/03/08 05:25:22;;;;;;;27.33;13.95;;;89.80;2176.00;;;;;;5012891;28;20432;-69
2021/03/08 05:27:49;;;;;;;27.67;13.95;;;89.60;2201.60;;;;;;5012560;28;20029;-67
2021/03/08 05:30:20;;;;;;;26.40;13.25;;;64.80;2201.60;;;;;;5012513;28;20029;-70
2021/03/08 05:33:00;;;;;;;27.50;12.57;;;64.60;2201.60;;;;;;5012532;28;20075;-66
2021/03/08 05:35:27;;;;;;;25.67;13.10;;;64.40;2201.60;;;;;;5012998;28;20033;-66
2021/03/08 05:37:55;;;;;;;25.30;13.07;;;64.40;2201.60;;;;;;5012568;28;20026;-67
2021/03/08 05:40:33;;;;;;;26.70;13.30;;;64.10;2201.60;;;;;;5012607;28;20041;-66
2021/03/08 05:43:09;;;;;;;27.70;14.38;;;39.10;2150.40;;;;;;5012407;28;20621;-66
2021/03/08 05:45:39;;;;;;;34.10;14.27;;;38.80;2099.20;;;;;;5012482;28;20030;-66
2021/03/08 05:48:37;;;;;;;32.28;14.82;;;38.60;2048.00;;;;;;5012335;28;20038;-67
2021/03/08 05:51:02;;;;;;;28.67;14.85;;;13.70;2022.40;;;;;;5012408;28;20029;-66
2021/03/08 05:53:58;;;;;;;34.75;18.33;;;13.40;1971.20;;;;;;5011977;28;20503;-66
2021/03/08 05:56:45;;;;;;;35.20;19.58;;;13.10;1945.60;;;;;;5012460;28;20030;-66
2021/03/08 05:59:48;;;;;;;38.63;19.08;;;0.10;1894.40;;;;;;5011963;28;20014;-66
2021/03/08 06:02:51;;;;;;;31.80;16.67;;;0.50;1868.80;;;;;;5010812;28;20552;-67
2021/03/08 06:05:26;;;;;;;33.75;18.30;;;0.50;1868.80;;;;;;5011924;28;20109;-69
2021/03/08 06:08:25;;;;;;;47.92;25.50;;;26.10;1792.00;;;;;;5011897;28;20483;-67
2021/03/08 06:11:07;;;;;;;36.55;21.52;;;26.20;1766.40;;;;;;5011900;28;20030;-67
2021/03/08 06:13:42;;;;;;;33.70;19.65;;;26.50;1766.40;;;;;;5012190;28;20017;-66
2021/03/08 06:16:10;;;;;;;33.13;19.30;;;26.50;1792.00;;;;;;5012346;28;20075;-66
2021/03/08 06:18:43;;;;;;;37.35;20.92;;;26.50;1740.80;;;;;;5011749;28;20026;-66
2021/03/08 06:21:11;;;;;;;34.47;21.88;;;51.20;1766.40;;;;;;4999017;28;20030;-66
2021/03/08 06:23:38;;;;;;;56.38;27.80;;;51.60;1740.80;;;;;;5011771;28;20038;-66
2021/03/08 06:26:05;;;;;;;58.88;30.73;;;51.80;1689.60;;;;;;5011833;28;20029;-66
2021/03/08 06:28:31;;;;;;;68.22;34.72;;;52.00;1664.00;;;;;;5011378;28;20034;-67
2021/03/08 06:30:58;;;;;;;69.60;33.80;;;77.10;1612.80;;;;;;5011662;28;20121;-67
2021/03/08 06:33:24;;;;;;;55.83;28.90;;;77.70;1587.20;;;;;;5011534;28;20076;-67
2021/03/08 06:35:52;;;;;;;37.47;22.77;;;102.90;1536.00;;;;;;5011605;28;20018;-68
2021/03/08 06:38:19;;;;;;;38.22;22.80;;;102.80;1484.80;;;;;;5011347;28;20018;-68
2021/03/08 06:40:45;;;;;;;36.45;21.85;;;103.30;1459.20;;;;;;5011532;28;20104;-67
2021/03/08 06:43:11;;;;;;;48.13;26.48;;;128.50;1433.60;;;;;;5011098;28;20105;-67
2021/03/08 06:45:37;;;;;;;63.95;31.58;;;128.80;1408.00;;;;;;5011633;28;20109;-67
2021/03/08 06:48:03;;;;;;;59.00;31.88;;;153.80;1382.40;;;;;;5011335;28;20057;-69
2021/03/08 06:50:28;;;;;;;52.42;30.42;;;179.80;1305.60;;;;;;5011560;28;20037;-68
2021/03/08 06:52:54;;;;;;;63.33;31.60;;;230.70;1177.60;;;;;;5011412;28;20149;-67
2021/03/08 06:55:21;;;;;;;47.40;28.77;;;281.90;1100.80;;;;;;5011139;28;20128;-68
2021/03/08 06:57:47;;;;;;;58.13;32.03;;;307.70;1049.60;;;;;;5011350;28;20387;-71
2021/03/08 07:00:13;;;;;;;41.42;26.20;;;333.50;972.80;;;;;;5010919;28;20029;-68
2021/03/08 07:02:49;;;;;;;39.78;26.08;;;359.00;921.60;;;;;;5011139;28;20083;-69
2021/03/08 07:05:24;;;;;;;40.47;26.75;;;384.00;896.00;;;;;;5010898;28;20033;-67
2021/03/08 07:07:57;;;;;;;45.10;29.73;;;410.10;844.80;;;;;;5010437;28;20072;-68
2021/03/08 07:10:35;;;;;;;50.38;33.05;;;410.30;819.20;;;;;;5010913;28;20034;-68
2021/03/08 07:13:02;;;;;;;59.67;37.83;;;409.60;844.80;;;;;;5011373;28;20033;-69
2021/03/08 07:15:28;;;;;;;66.20;39.72;;;435.30;819.20;;;;;;5011094;28;20026;-69
2021/03/08 07:17:54;;;;;;;58.17;37.40;;;461.00;793.60;;;;;;5011236;28;20096;-69
2021/03/08 07:20:20;;;;;;;51.63;35.05;;;487.30;742.40;;;;;;5011811;28;20030;-69
2021/03/08 07:22:51;;;;;;;55.22;38.17;;;512.20;716.80;;;;;;5007785;28;20453;-68
2021/03/08 07:25:31;;;;;;;51.63;35.28;;;538.50;716.80;;;;;;5005490;28;20018;-68
2021/03/08 07:28:00;;;;;;;53.37;36.13;;;588.90;716.80;;;;;;5011304;28;20034;-69
2021/03/08 07:30:32;;;;;;;49.58;35.30;;;589.20;691.20;;;;;;5010843;28;20041;-70
2021/03/08 07:33:03;;;;;;;52.40;36.17;;;589.70;665.60;;;;;;5010767;28;20037;-70
2021/03/08 07:35:32;;;;;;;48.17;34.72;;;615.20;640.00;;;;;;5010952;28;20030;-69
2021/03/08 07:37:57;;;;;;;46.40;35.67;;;640.70;614.40;;;;;;5010532;28;20424;-70
2021/03/08 07:40:23;;;;;;;41.50;31.90;;;640.50;614.40;;;;;;5010091;28;20026;-70
2021/03/08 07:42:50;;;;;;;37.60;30.05;;;615.20;640.00;;;;;;5009891;28;20030;-68
2021/03/08 07:45:17;;;;;;;46.63;34.72;;;640.50;640.00;;;;;;5010563;28;20410;-69
2021/03/08 07:47:43;;;;;;;54.35;38.75;;;640.20;640.00;;;;;;5007301;28;20092;-70
2021/03/08 07:50:39;;;;;;;47.70;35.67;;;666.00;640.00;;;;;;4993245;28;20038;-69
2021/03/08 07:53:21;;;;;;;34.10;28.17;;;691.90;588.80;;;;;;4999282;28;20829;-70
2021/03/08 07:55:48;;;;;;;40.25;31.70;;;615.30;640.00;;;;;;5001853;28;20062;-71
2021/03/08 07:58:16;;;;;;;36.50;30.27;;;640.70;614.40;;;;;;5000292;28;20142;-72
2021/03/08 08:00:42;;;;;;;38.42;31.55;;;691.30;614.40;;;;;;4995818;28;20055;-71
2021/03/08 08:03:08;;;;;;;37.78;32.17;;;666.50;640.00;;;;;;4993823;28;20113;-68
2021/03/08 08:05:33;;;;;;;35.30;30.10;;;691.60;614.40;;;;;;5009062;28;20068;-71
2021/03/08 08:08:00;;;;;;;35.50;29.40;;;640.50;640.00;;;;;;5010489;28;20057;-67
2021/03/08 08:10:26;;;;;;;35.55;28.70;;;692.10;588.80;;;;;;5001941;28;20026;-68
2021/03/08 08:12:55;;;;;;;34.35;29.70;;;742.80;614.40;;;;;;5002854;28;20034;-69
2021/03/08 08:15:25;;;;;;;37.58;29.95;;;768.50;563.20;;;;;;4995011;28;20057;-69
2021/03/08 08:17:53;;;;;;;38.20;33.92;;;768.70;563.20;;;;;;5002710;28;20060;-71
2021/03/08 08:20:19;;;;;;;32.63;28.15;;;743.00;588.80;;;;;;4998610;28;20034;-72
2021/03/08 08:22:53;;;;;;;37.92;30.35;;;717.60;588.80;;;;;;5013598;28;20448;-68
2021/03/08 08:25:20;;;;;;;32.10;26.05;;;742.60;614.40;;;;;;5014098;28;20072;-68
2021/03/08 08:27:47;;;;;;;30.20;25.58;;;743.10;588.80;;;;;;5008673;28;20109;-68
2021/03/08 08:30:15;;;;;;;27.92;24.52;;;793.70;588.80;;;;;;5013490;28;20255;-70
2021/03/08 08:32:48;;;;;;;29.52;25.45;;;819.50;537.60;;;;;;5012791;28;20028;-69
2021/03/08 08:35:22;;;;;;;28.50;25.10;;;819.30;537.60;;;;;;5005593;28;20022;-69
2021/03/08 08:38:06;;;;;;;29.95;25.50;;;820.10;537.60;;;;;;5006812;28;20037;-69
2021/03/08 08:40:37;;;;;;;32.72;27.85;;;794.30;563.20;;;;;;5003605;28;20493;-68
2021/03/08 08:43:15;;;;;;;;;;;794.50;563.20;;;;;;5013825;28;20030;-68
2021/03/08 08:45:45;;;;;;;32.72;28.58;;;845.40;537.60;;;;;;5013454;28;19996;-68
2021/03/08 08:48:11;;;;;;;;;;;871.00;512.00;;;;;;5013892;28;20037;-68
2021/03/08 08:50:53;;;;;;;35.20;27.83;;;921.80;486.40;;;;;;5013240;28;19910;-69
2021/03/08 08:53:38;;;;;;;29.52;25.52;;;922.10;486.40;;;;;;5013489;28;20462;-69
2021/03/08 08:56:05;;;;;;;29.73;25.67;;;871.30;486.40;;;;;;5011938;28;20030;-73
2021/03/08 08:58:50;;;;;;;29.17;25.90;;;896.50;486.40;;;;;;5012921;28;20022;-69
2021/03/08 09:01:20;;;;;;;30.95;26.42;;;947.70;460.80;;;;;;5012935;28;20434;-69
2021/03/08 09:03:53;;;;;;;30.53;27.23;;;947.70;460.80;;;;;;4997929;28;20026;-72
2021/03/08 09:06:43;;;;;;;28.63;24.48;;;998.40;460.80;;;;;;4995660;28;20546;-69
2021/03/08 09:09:13;;;;;;;30.52;25.27;;;973.20;460.80;;;;;;4993948;28;20040;-75
2021/03/08 09:11:44;;;;;;;28.85;25.02;;;973.60;460.80;;;;;;4992765;28;20018;-69
2021/03/08 09:14:30;;;;;;;28.45;23.90;;;973.40;460.80;;;;;;5000777;28;20561;-70
2021/03/08 09:17:19;;;;;;;30.05;24.00;;;998.90;460.80;;;;;;5006807;28;20088;-69
2021/03/08 09:19:57;;;;;;;32.03;25.37;;;999.30;435.20;;;;;;4998031;28;20068;-70
2021/03/08 09:22:22;;;;;;;29.58;24.55;;;998.70;460.80;;;;;;4995799;28;20026;-69
2021/03/08 09:24:49;;;;;;;29.67;24.30;;;999.30;435.20;;;;;;4997088;28;20440;-71
2021/03/08 09:27:28;;;;;;;30.38;25.35;;;1049.80;435.20;;;;;;5000432;28;20026;-77
2021/03/08 09:30:00;;;;;;;31.30;27.17;;;1075.30;409.60;;;;;;4995551;28;20027;-72
2021/03/08 09:32:26;;;;;;;34.35;28.95;;;1101.10;435.20;;;;;;4997828;28;20085;-73
2021/03/08 09:34:51;;;;;;;36.15;32.17;;;1127.30;409.60;;;;;;4999791;28;20387;-70
2021/03/08 09:37:19;;;;;;;30.98;25.63;;;1152.50;409.60;;;;;;4992727;28;20034;-71
2021/03/08 09:39:49;;;;;;;28.45;23.73;;;1178.50;409.60;;;;;;4999723;28;20030;-71
2021/03/08 09:42:15;;;;;;;31.70;25.75;;;1203.40;435.20;;;;;;5003596;28;20022;-70
2021/03/08 09:44:45;;;;;;;24.90;21.02;;;1203.60;435.20;;;;;;5002396;28;20464;-71
2021/03/08 09:47:11;;;;;;;25.38;20.80;;;1228.90;460.80;;;;;;5006198;28;20430;-71
2021/03/08 09:49:50;;;;;;;22.98;19.23;;;1254.60;486.40;;;;;;4992752;28;20030;-71
2021/03/08 09:52:36;;;;;;;23.95;19.85;;;1280.20;486.40;;;;;;4996666;28;20117;-70
2021/03/08 09:55:06;;;;;;;19.17;17.05;;;1280.20;486.40;;;;;;4997580;28;20046;-71
2021/03/08 09:57:31;;;;;;;;;;;1280.50;486.40;;;;;;4999825;28;20030;-71
2021/03/08 09:59:57;;;;;;;21.55;16.63;;;1305.60;486.40;;;;;;5000661;28;20499;-70
2021/03/08 10:02:25;;;;;;;19.80;15.07;;;1254.50;486.40;;;;;;5003558;28;20030;-71
2021/03/08 10:04:56;;;;;;;20.08;16.17;;;1254.40;486.40;;;;;;4999428;28;20106;-71
2021/03/08 10:07:23;;;;;;;17.63;14.73;;;1254.40;486.40;;;;;;4996268;28;20034;-70
2021/03/08 10:10:06;;;;;;;15.65;13.93;;;1204.10;435.20;;;;;;4992932;28;20018;-70
2021/03/08 10:12:32;;;;;;;19.73;16.42;;;1254.50;486.40;;;;;;4994694;28;20027;-70
2021/03/08 10:14:59;;;;;;;19.85;16.90;;;1254.90;486.40;;;;;;5002108;28;20447;-70
2021/03/08 10:17:24;;;;;;;16.92;14.88;;;1203.70;435.20;;;;;;5000739;28;20018;-70
2021/03/08 10:19:57;;;;;;;19.30;16.92;;;1203.80;435.20;;;;;;4995364;28;20063;-73
2021/03/08 10:22:37;;;;;;;26.83;23.92;;;1203.30;435.20;;;;;;5000761;28;20030;-72
2021/03/08 10:25:26;;;;;;;19.02;16.60;;;1204.10;435.20;;;;;;5002157;28;20439;-70
2021/03/08 10:28:03;;;;;;;17.98;15.13;;;1203.20;435.20;;;;;;5005676;28;20033;-70
2021/03/08 10:30:31;;;;;;;19.02;17.02;;;1178.30;409.60;;;;;;5002098;28;20080;-71
2021/03/08 10:33:01;;;;;;;16.80;14.98;;;1203.20;435.20;;;;;;4999079;28;20036;-70
2021/03/08 10:35:28;;;;;;;;;;;1203.60;435.20;;;;;;5002184;28;20093;-71
2021/03/08 10:37:54;;;;;;;18.17;14.25;;;1204.10;435.20;;;;;;5003884;28;19909;-70
2021/03/08 10:40:22;;;;;;;15.40;13.35;;;1178.00;409.60;;;;;;5001887;28;20451;-70
2021/03/08 10:42:49;;;;;;;16.80;14.50;;;1203.80;435.20;;;;;;5002729;28;20026;-71
2021/03/08 10:45:15;;;;;;;18.23;15.95;;;1177.60;409.60;;;;;;5000361;28;20117;-74
2021/03/08 10:47:41;;;;;;;18.30;16.13;;;1203.60;435.20;;;;;;4999008;28;20025;-71
2021/03/08 10:50:08;;;;;;;18.67;15.38;;;1203.60;435.20;;;;;;4995273;28;20101;-70
2021/03/08 10:52:34;;;;;;;18.33;15.18;;;1203.70;435.20;;;;;;5000883;28;20479;-69
2021/03/08 10:55:00;;;;;;;15.05;12.90;;;1229.40;460.80;;;;;;4998405;28;20115;-72
2021/03/08 10:57:27;;;;;;;18.13;14.35;;;1254.90;486.40;;;;;;4996608;28;20502;-69
2021/03/08 10:59:55;;;;;;;17.75;13.65;;;1254.60;486.40;;;;;;4996331;28;20412;-67
2021/03/08 11:02:23;;;;;;;15.48;13.45;;;1280.40;486.40;;;;;;5005060;28;20149;-69
2021/03/08 11:05:10;;;;;;;16.77;14.98;;;1306.30;486.40;;;;;;4992184;28;20088;-69
2021/03/08 11:07:36;;;;;;;17.38;14.93;;;1280.90;486.40;;;;;;5004149;28;20391;-69
2021/03/08 11:10:02;;;;;;;17.67;15.68;;;1306.30;486.40;;;;;;5005117;28;20014;-71
2021/03/08 11:12:28;;;;;;;17.83;14.75;;;1306.00;486.40;;;;;;4999879;28;20049;-70
2021/03/08 11:14:56;;;;;;;19.42;16.13;;;1280.70;486.40;;;;;;5009619;28;20056;-70
2021/03/08 11:17:36;;;;;;;19.77;15.90;;;1280.90;486.40;;;;;;5010311;28;20026;-70
2021/03/08 11:20:16;;;;;;;18.35;15.75;;;1306.30;486.40;;;;;;5007479;28;20028;-69
2021/03/08 11:22:52;;;;;;;23.52;17.60;;;1280.90;486.40;;;;;;5006736;28;20029;-68
2021/03/08 11:25:45;;;;;;;17.92;14.50;;;1280.20;486.40;;;;;;5001781;28;20061;-72
2021/03/08 11:28:16;;;;;;;17.58;15.05;;;1255.10;486.40;;;;;;5001258;28;20029;-69
2021/03/08 11:30:50;;;;;;;17.77;15.45;;;1305.70;486.40;;;;;;5008726;28;20029;-70
2021/03/08 11:33:16;;;;;;;20.00;15.70;;;1229.40;460.80;;;;;;5007624;28;20384;-70
2021/03/08 11:35:48;;;;;;;17.23;14.82;;;1050.50;409.60;;;;;;5005787;28;20032;-69
2021/03/08 11:38:15;;;;;;;17.08;14.55;;;1075.50;384.00;;;;;;5005843;28;20581;-69
2021/03/08 11:40:43;;;;;;;22.33;19.92;;;1152.60;409.60;;;;;;5003132;28;20042;-74
2021/03/08 11:43:09;;;;;;;27.67;23.60;;;1203.60;435.20;;;;;;5002494;28;20020;-69
2021/03/08 11:45:35;;;;;;;16.73;14.65;;;1229.20;460.80;;;;;;5003195;28;20025;-69
2021/03/08 11:48:02;;;;;;;14.77;13.18;;;1254.50;486.40;;;;;;5004566;28;20030;-70
2021/03/08 11:50:32;;;;;;;20.42;16.02;;;1255.10;486.40;;;;;;5006476;28;20027;-71
2021/03/08 11:52:58;;;;;;;19.58;15.73;;;1255.10;486.40;;;;;;5000350;28;20030;-76
2021/03/08 11:55:24;;;;;;;17.92;14.85;;;1280.40;486.40;;;;;;4997353;28;20050;-70
2021/03/08 11:57:50;;;;;;;17.92;14.40;;;1229.40;460.80;;;;;;5009545;28;20479;-72
2021/03/08 12:00:26;;;;;;;17.70;15.27;;;1254.60;486.40;;;;;;5006139;28;20079;-69
2021/03/08 12:02:52;;;;;;;16.17;13.25;;;1254.80;486.40;;;;;;5005427;28;20109;-71
2021/03/08 12:05:19;;;;;;;15.70;13.90;;;1254.80;486.40;;;;;;5008566;28;20101;-71
2021/03/08 12:07:45;;;;;;;17.52;14.10;;;1254.60;486.40;;;;;;5000172;28;20042;-71
2021/03/08 12:10:13;;;;;;;19.98;16.15;;;1177.60;409.60;;;;;;5005623;28;20434;-70
2021/03/08 12:12:39;;;;;;;19.55;15.98;;;1152.50;409.60;;;;;;5010445;28;20034;-71
2021/03/08 12:15:07;;;;;;;21.50;16.67;;;1152.20;409.60;;;;;;5003193;28;20019;-68
2021/03/08 12:17:33;;;;;;;22.58;17.25;;;1101.10;409.60;;;;;;4999313;28;20487;-69
2021/03/08 12:19:59;;;;;;;25.42;19.00;;;998.80;435.20;;;;;;5008744;28;20105;-68